Aviation Digital Data Service (ADDS)

Output produced by TAFs form (0827 UTC 20 April 2018)
found at http://aviationweather.gov/adds/tafs/
 
KJQF 200815Z AUTO 00000KT 10SM CLR 03/M01 A3030 RMK AO2